sensor_id;sensor_type;location;lat;lon;timestamp;temperature;humidity
26099;DHT22;13860;52.370;6.764;2022-07-17T00:00:08;16.50;56.70
26099;DHT22;13860;52.370;6.764;2022-07-17T00:03:16;16.40;56.70
26099;DHT22;13860;52.370;6.764;2022-07-17T00:06:23;16.30;56.70
26099;DHT22;13860;52.370;6.764;2022-07-17T00:09:28;16.30;56.80
26099;DHT22;13860;52.370;6.764;2022-07-17T00:12:36;16.30;56.90
26099;DHT22;13860;52.370;6.764;2022-07-17T00:15:41;16.20;57.00
26099;DHT22;13860;52.370;6.764;2022-07-17T00:18:46;16.10;57.00
26099;DHT22;13860;52.370;6.764;2022-07-17T00:21:51;16.10;57.10
26099;DHT22;13860;52.370;6.764;2022-07-17T00:24:56;16.10;57.20
26099;DHT22;13860;52.370;6.764;2022-07-17T00:28:04;16.00;57.20
26099;DHT22;13860;52.370;6.764;2022-07-17T00:31:09;16.00;57.50
26099;DHT22;13860;52.370;6.764;2022-07-17T00:34:14;15.90;57.40
26099;DHT22;13860;52.370;6.764;2022-07-17T00:37:22;15.80;57.40
26099;DHT22;13860;52.370;6.764;2022-07-17T00:40:28;15.80;57.60
26099;DHT22;13860;52.370;6.764;2022-07-17T00:43:36;15.80;57.70
26099;DHT22;13860;52.370;6.764;2022-07-17T00:46:41;15.70;57.80
26099;DHT22;13860;52.370;6.764;2022-07-17T00:49:47;15.60;57.80
26099;DHT22;13860;52.370;6.764;2022-07-17T00:52:52;15.60;57.90
26099;DHT22;13860;52.370;6.764;2022-07-17T00:55:58;15.60;58.10
26099;DHT22;13860;52.370;6.764;2022-07-17T00:59:07;15.50;58.00
26099;DHT22;13860;52.370;6.764;2022-07-17T01:02:12;15.50;58.20
26099;DHT22;13860;52.370;6.764;2022-07-17T01:05:20;15.40;58.20
26099;DHT22;13860;52.370;6.764;2022-07-17T01:08:26;15.40;58.30
26099;DHT22;13860;52.370;6.764;2022-07-17T01:11:32;15.40;58.30
26099;DHT22;13860;52.370;6.764;2022-07-17T01:14:41;15.30;58.40
26099;DHT22;13860;52.370;6.764;2022-07-17T01:17:46;15.30;58.40
26099;DHT22;13860;52.370;6.764;2022-07-17T01:20:51;15.20;58.40
26099;DHT22;13860;52.370;6.764;2022-07-17T01:23:59;15.20;58.40
26099;DHT22;13860;52.370;6.764;2022-07-17T01:27:04;15.20;58.60
26099;DHT22;13860;52.370;6.764;2022-07-17T01:30:10;15.10;58.50
26099;DHT22;13860;52.370;6.764;2022-07-17T01:33:15;15.10;59.20
26099;DHT22;13860;52.370;6.764;2022-07-17T01:36:22;15.00;59.20
26099;DHT22;13860;52.370;6.764;2022-07-17T01:39:30;15.00;59.40
26099;DHT22;13860;52.370;6.764;2022-07-17T01:42:49;15.00;58.90
26099;DHT22;13860;52.370;6.764;2022-07-17T01:45:54;14.90;58.90
26099;DHT22;13860;52.370;6.764;2022-07-17T01:48:59;14.90;58.90
26099;DHT22;13860;52.370;6.764;2022-07-17T01:52:05;14.80;58.90
26099;DHT22;13860;52.370;6.764;2022-07-17T01:55:14;14.80;59.00
26099;DHT22;13860;52.370;6.764;2022-07-17T01:58:20;14.70;59.20
26099;DHT22;13860;52.370;6.764;2022-07-17T02:01:25;14.70;59.10
26099;DHT22;13860;52.370;6.764;2022-07-17T02:04:31;14.70;59.20
26099;DHT22;13860;52.370;6.764;2022-07-17T02:07:36;14.60;59.20
26099;DHT22;13860;52.370;6.764;2022-07-17T02:10:45;14.60;59.30
26099;DHT22;13860;52.370;6.764;2022-07-17T02:13:50;14.60;59.50
26099;DHT22;13860;52.370;6.764;2022-07-17T02:16:55;14.50;59.40
26099;DHT22;13860;52.370;6.764;2022-07-17T02:20:00;14.50;59.50
26099;DHT22;13860;52.370;6.764;2022-07-17T02:23:05;14.40;59.50
26099;DHT22;13860;52.370;6.764;2022-07-17T02:26:13;14.40;60.30
26099;DHT22;13860;52.370;6.764;2022-07-17T02:29:18;14.40;59.80
26099;DHT22;13860;52.370;6.764;2022-07-17T02:32:23;14.30;59.80
26099;DHT22;13860;52.370;6.764;2022-07-17T02:35:28;14.30;59.80
26099;DHT22;13860;52.370;6.764;2022-07-17T02:38:33;14.30;59.90
26099;DHT22;13860;52.370;6.764;2022-07-17T02:41:41;14.20;60.60
26099;DHT22;13860;52.370;6.764;2022-07-17T02:44:46;14.20;60.10
26099;DHT22;13860;52.370;6.764;2022-07-17T02:47:51;14.20;60.10
26099;DHT22;13860;52.370;6.764;2022-07-17T02:50:56;14.10;60.10
26099;DHT22;13860;52.370;6.764;2022-07-17T02:54:02;14.10;60.10
26099;DHT22;13860;52.370;6.764;2022-07-17T02:57:09;14.10;60.20
26099;DHT22;13860;52.370;6.764;2022-07-17T03:00:16;14.00;60.20
26099;DHT22;13860;52.370;6.764;2022-07-17T03:03:22;14.00;60.30
26099;DHT22;13860;52.370;6.764;2022-07-17T03:06:28;13.90;60.30
26099;DHT22;13860;52.370;6.764;2022-07-17T03:09:33;13.90;60.40
26099;DHT22;13860;52.370;6.764;2022-07-17T03:12:41;13.90;60.50
26099;DHT22;13860;52.370;6.764;2022-07-17T03:15:46;13.90;60.60
26099;DHT22;13860;52.370;6.764;2022-07-17T03:18:52;13.80;60.60
26099;DHT22;13860;52.370;6.764;2022-07-17T03:21:57;13.80;60.60
26099;DHT22;13860;52.370;6.764;2022-07-17T03:25:03;13.80;60.70
26099;DHT22;13860;52.370;6.764;2022-07-17T03:28:10;13.70;60.70
26099;DHT22;13860;52.370;6.764;2022-07-17T03:31:16;13.70;60.80
26099;DHT22;13860;52.370;6.764;2022-07-17T03:34:21;13.70;60.80
26099;DHT22;13860;52.370;6.764;2022-07-17T03:37:26;13.60;60.70
26099;DHT22;13860;52.370;6.764;2022-07-17T03:40:32;13.60;60.80
26099;DHT22;13860;52.370;6.764;2022-07-17T03:43:39;13.60;60.90
26099;DHT22;13860;52.370;6.764;2022-07-17T03:46:44;13.60;61.00
26099;DHT22;13860;52.370;6.764;2022-07-17T03:49:49;13.50;61.00
26099;DHT22;13860;52.370;6.764;2022-07-17T03:52:54;13.50;61.00
26099;DHT22;13860;52.370;6.764;2022-07-17T03:55:59;13.50;61.10
26099;DHT22;13860;52.370;6.764;2022-07-17T03:59:07;13.40;61.10
26099;DHT22;13860;52.370;6.764;2022-07-17T04:02:12;13.50;61.30
26099;DHT22;13860;52.370;6.764;2022-07-17T04:05:17;13.40;61.30
26099;DHT22;13860;52.370;6.764;2022-07-17T04:08:22;13.40;61.40
26099;DHT22;13860;52.370;6.764;2022-07-17T04:11:27;13.30;61.40
26099;DHT22;13860;52.370;6.764;2022-07-17T04:14:35;13.30;61.50
26099;DHT22;13860;52.370;6.764;2022-07-17T04:17:40;13.30;61.60
26099;DHT22;13860;52.370;6.764;2022-07-17T04:20:45;13.30;61.70
26099;DHT22;13860;52.370;6.764;2022-07-17T04:23:50;13.30;62.40
26099;DHT22;13860;52.370;6.764;2022-07-17T04:26:55;13.20;61.70
26099;DHT22;13860;52.370;6.764;2022-07-17T04:30:04;13.30;61.90
26099;DHT22;13860;52.370;6.764;2022-07-17T04:33:09;13.20;62.00
26099;DHT22;13860;52.370;6.764;2022-07-17T04:36:15;13.30;62.10
26099;DHT22;13860;52.370;6.764;2022-07-17T04:39:20;13.30;62.10
26099;DHT22;13860;52.370;6.764;2022-07-17T04:42:25;13.20;62.10
26099;DHT22;13860;52.370;6.764;2022-07-17T04:45:33;13.20;62.20
26099;DHT22;13860;52.370;6.764;2022-07-17T04:48:38;13.20;62.30
26099;DHT22;13860;52.370;6.764;2022-07-17T04:51:43;13.20;62.30
26099;DHT22;13860;52.370;6.764;2022-07-17T04:54:48;13.30;62.50
26099;DHT22;13860;52.370;6.764;2022-07-17T04:57:53;13.30;62.60
26099;DHT22;13860;52.370;6.764;2022-07-17T05:01:01;13.30;62.60
26099;DHT22;13860;52.370;6.764;2022-07-17T05:04:07;13.40;62.90
26099;DHT22;13860;52.370;6.764;2022-07-17T05:07:12;13.40;62.90
26099;DHT22;13860;52.370;6.764;2022-07-17T05:10:17;13.50;62.90
26099;DHT22;13860;52.370;6.764;2022-07-17T05:13:28;13.50;63.10
26099;DHT22;13860;52.370;6.764;2022-07-17T05:16:36;13.50;63.10
26099;DHT22;13860;52.370;6.764;2022-07-17T05:19:42;13.60;63.20
26099;DHT22;13860;52.370;6.764;2022-07-17T05:22:47;13.70;63.30
26099;DHT22;13860;52.370;6.764;2022-07-17T05:25:52;13.70;63.30
26099;DHT22;13860;52.370;6.764;2022-07-17T05:28:57;13.80;63.30
26099;DHT22;13860;52.370;6.764;2022-07-17T05:32:05;13.90;63.40
26099;DHT22;13860;52.370;6.764;2022-07-17T05:35:10;13.90;63.60
26099;DHT22;13860;52.370;6.764;2022-07-17T05:38:15;14.00;63.60
26099;DHT22;13860;52.370;6.764;2022-07-17T05:41:20;14.10;63.60
26099;DHT22;13860;52.370;6.764;2022-07-17T05:44:26;14.10;63.70
26099;DHT22;13860;52.370;6.764;2022-07-17T05:47:33;14.20;63.70
26099;DHT22;13860;52.370;6.764;2022-07-17T05:50:38;14.30;63.90
26099;DHT22;13860;52.370;6.764;2022-07-17T05:53:43;14.30;63.80
26099;DHT22;13860;52.370;6.764;2022-07-17T05:56:48;14.40;63.90
26099;DHT22;13860;52.370;6.764;2022-07-17T05:59:54;14.50;64.00
26099;DHT22;13860;52.370;6.764;2022-07-17T06:03:02;14.60;64.10
26099;DHT22;13860;52.370;6.764;2022-07-17T06:06:07;14.70;64.20
26099;DHT22;13860;52.370;6.764;2022-07-17T06:09:13;14.80;64.10
26099;DHT22;13860;52.370;6.764;2022-07-17T06:12:18;14.90;64.20
26099;DHT22;13860;52.370;6.764;2022-07-17T06:15:24;15.00;64.10
26099;DHT22;13860;52.370;6.764;2022-07-17T06:18:31;15.10;64.20
26099;DHT22;13860;52.370;6.764;2022-07-17T06:21:36;15.20;64.30
26099;DHT22;13860;52.370;6.764;2022-07-17T06:24:41;15.30;64.20
26099;DHT22;13860;52.370;6.764;2022-07-17T06:27:46;15.40;64.30
26099;DHT22;13860;52.370;6.764;2022-07-17T06:30:51;15.50;64.50
26099;DHT22;13860;52.370;6.764;2022-07-17T06:33:59;15.60;64.50
26099;DHT22;13860;52.370;6.764;2022-07-17T06:37:04;15.80;64.70
26099;DHT22;13860;52.370;6.764;2022-07-17T06:40:10;15.90;64.60
26099;DHT22;13860;52.370;6.764;2022-07-17T06:43:15;16.10;64.60
26099;DHT22;13860;52.370;6.764;2022-07-17T06:46:20;16.30;64.60
26099;DHT22;13860;52.370;6.764;2022-07-17T06:49:27;16.50;64.60
26099;DHT22;13860;52.370;6.764;2022-07-17T06:52:32;16.70;64.60
26099;DHT22;13860;52.370;6.764;2022-07-17T06:55:37;16.90;64.50
26099;DHT22;13860;52.370;6.764;2022-07-17T06:58:43;17.20;64.40
26099;DHT22;13860;52.370;6.764;2022-07-17T07:01:48;17.40;64.10
26099;DHT22;13860;52.370;6.764;2022-07-17T07:04:55;17.60;64.00
26099;DHT22;13860;52.370;6.764;2022-07-17T07:08:00;17.80;63.80
26099;DHT22;13860;52.370;6.764;2022-07-17T07:11:05;18.10;63.70
26099;DHT22;13860;52.370;6.764;2022-07-17T07:14:11;18.30;63.40
26099;DHT22;13860;52.370;6.764;2022-07-17T07:17:16;18.60;63.20
26099;DHT22;13860;52.370;6.764;2022-07-17T07:20:24;18.80;62.80
26099;DHT22;13860;52.370;6.764;2022-07-17T07:23:29;19.10;62.50
26099;DHT22;13860;52.370;6.764;2022-07-17T07:26:35;19.30;62.30
26099;DHT22;13860;52.370;6.764;2022-07-17T07:29:40;19.50;62.00
26099;DHT22;13860;52.370;6.764;2022-07-17T07:32:45;19.70;61.80
26099;DHT22;13860;52.370;6.764;2022-07-17T07:35:52;19.90;61.50
26099;DHT22;13860;52.370;6.764;2022-07-17T07:38:57;20.10;61.30
26099;DHT22;13860;52.370;6.764;2022-07-17T07:42:06;20.30;61.00
26099;DHT22;13860;52.370;6.764;2022-07-17T07:45:11;20.50;60.70
26099;DHT22;13860;52.370;6.764;2022-07-17T07:48:16;20.70;60.60
26099;DHT22;13860;52.370;6.764;2022-07-17T07:51:23;20.90;60.30
26099;DHT22;13860;52.370;6.764;2022-07-17T07:54:49;21.10;60.00
26099;DHT22;13860;52.370;6.764;2022-07-17T07:58:01;21.30;59.80
26099;DHT22;13860;52.370;6.764;2022-07-17T08:01:07;21.50;59.40
26099;DHT22;13860;52.370;6.764;2022-07-17T08:04:12;21.70;59.30
26099;DHT22;13860;52.370;6.764;2022-07-17T08:07:20;21.90;59.00
26099;DHT22;13860;52.370;6.764;2022-07-17T08:10:25;22.10;58.70
26099;DHT22;13860;52.370;6.764;2022-07-17T08:13:31;22.30;58.50
26099;DHT22;13860;52.370;6.764;2022-07-17T08:16:36;22.50;58.10
26099;DHT22;13860;52.370;6.764;2022-07-17T08:19:41;22.70;57.80
26099;DHT22;13860;52.370;6.764;2022-07-17T08:22:49;22.90;57.60
26099;DHT22;13860;52.370;6.764;2022-07-17T08:26:09;23.10;57.30
26099;DHT22;13860;52.370;6.764;2022-07-17T08:29:14;23.30;57.20
26099;DHT22;13860;52.370;6.764;2022-07-17T08:32:40;23.40;56.90
26099;DHT22;13860;52.370;6.764;2022-07-17T08:35:45;23.50;56.50
26099;DHT22;13860;52.370;6.764;2022-07-17T08:38:53;23.70;56.30
26099;DHT22;13860;52.370;6.764;2022-07-17T08:41:58;23.80;55.90
26099;DHT22;13860;52.370;6.764;2022-07-17T08:45:10;23.90;55.80
26099;DHT22;13860;52.370;6.764;2022-07-17T08:48:16;24.10;55.60
26099;DHT22;13860;52.370;6.764;2022-07-17T08:51:22;24.20;55.30
26099;DHT22;13860;52.370;6.764;2022-07-17T08:54:32;24.30;55.00
26099;DHT22;13860;52.370;6.764;2022-07-17T08:57:38;24.50;54.80
26099;DHT22;13860;52.370;6.764;2022-07-17T09:00:47;24.50;54.60
26099;DHT22;13860;52.370;6.764;2022-07-17T09:03:59;24.70;54.60
26099;DHT22;13860;52.370;6.764;2022-07-17T09:07:11;24.80;54.40
26099;DHT22;13860;52.370;6.764;2022-07-17T09:10:30;25.00;54.00
26099;DHT22;13860;52.370;6.764;2022-07-17T09:13:44;25.10;53.50
26099;DHT22;13860;52.370;6.764;2022-07-17T09:16:55;25.20;53.40
26099;DHT22;13860;52.370;6.764;2022-07-17T09:20:02;25.30;53.30
26099;DHT22;13860;52.370;6.764;2022-07-17T09:23:07;25.40;53.20
26099;DHT22;13860;52.370;6.764;2022-07-17T09:26:15;25.50;52.90
26099;DHT22;13860;52.370;6.764;2022-07-17T09:29:20;25.60;52.60
26099;DHT22;13860;52.370;6.764;2022-07-17T09:32:28;25.60;52.50
26099;DHT22;13860;52.370;6.764;2022-07-17T09:35:33;25.70;52.30
26099;DHT22;13860;52.370;6.764;2022-07-17T09:38:41;25.70;52.10
26099;DHT22;13860;52.370;6.764;2022-07-17T09:41:49;25.80;52.00
26099;DHT22;13860;52.370;6.764;2022-07-17T09:44:56;25.90;51.90
26099;DHT22;13860;52.370;6.764;2022-07-17T09:48:03;25.90;51.70
26099;DHT22;13860;52.370;6.764;2022-07-17T09:51:09;26.00;51.50
26099;DHT22;13860;52.370;6.764;2022-07-17T09:54:17;26.10;51.40
26099;DHT22;13860;52.370;6.764;2022-07-17T09:57:29;26.20;51.30
26099;DHT22;13860;52.370;6.764;2022-07-17T10:00:35;26.30;51.00
26099;DHT22;13860;52.370;6.764;2022-07-17T10:03:41;26.40;51.00
26099;DHT22;13860;52.370;6.764;2022-07-17T10:06:47;26.50;50.80
26099;DHT22;13860;52.370;6.764;2022-07-17T10:09:52;26.60;50.60
26099;DHT22;13860;52.370;6.764;2022-07-17T10:13:02;26.70;50.60
26099;DHT22;13860;52.370;6.764;2022-07-17T10:16:08;26.80;50.20
26099;DHT22;13860;52.370;6.764;2022-07-17T10:19:18;26.80;50.20
26099;DHT22;13860;52.370;6.764;2022-07-17T10:22:24;26.90;50.00
26099;DHT22;13860;52.370;6.764;2022-07-17T10:25:29;27.00;50.00
26099;DHT22;13860;52.370;6.764;2022-07-17T10:28:43;27.10;49.80
26099;DHT22;13860;52.370;6.764;2022-07-17T10:31:51;27.10;49.30
26099;DHT22;13860;52.370;6.764;2022-07-17T10:35:00;27.20;49.40
26099;DHT22;13860;52.370;6.764;2022-07-17T10:38:10;27.20;49.20
26099;DHT22;13860;52.370;6.764;2022-07-17T10:41:19;27.30;49.00
26099;DHT22;13860;52.370;6.764;2022-07-17T10:44:28;27.30;48.80
26099;DHT22;13860;52.370;6.764;2022-07-17T10:47:47;27.40;48.60
26099;DHT22;13860;52.370;6.764;2022-07-17T10:50:55;27.40;48.30
26099;DHT22;13860;52.370;6.764;2022-07-17T10:54:00;27.60;48.60
26099;DHT22;13860;52.370;6.764;2022-07-17T10:57:06;27.60;48.50
26099;DHT22;13860;52.370;6.764;2022-07-17T11:00:17;27.70;48.50
26099;DHT22;13860;52.370;6.764;2022-07-17T11:03:22;27.80;48.10
26099;DHT22;13860;52.370;6.764;2022-07-17T11:06:29;27.90;48.10
26099;DHT22;13860;52.370;6.764;2022-07-17T11:09:34;27.90;47.80
26099;DHT22;13860;52.370;6.764;2022-07-17T11:12:39;27.90;47.80
26099;DHT22;13860;52.370;6.764;2022-07-17T11:15:48;28.00;47.70
26099;DHT22;13860;52.370;6.764;2022-07-17T11:18:54;28.10;47.50
26099;DHT22;13860;52.370;6.764;2022-07-17T11:22:04;28.10;47.40
26099;DHT22;13860;52.370;6.764;2022-07-17T11:25:12;28.20;47.30
26099;DHT22;13860;52.370;6.764;2022-07-17T11:28:36;28.40;47.10
26099;DHT22;13860;52.370;6.764;2022-07-17T11:31:45;28.40;46.60
26099;DHT22;13860;52.370;6.764;2022-07-17T11:34:50;28.50;46.70
26099;DHT22;13860;52.370;6.764;2022-07-17T11:37:55;28.50;46.40
26099;DHT22;13860;52.370;6.764;2022-07-17T11:41:01;28.50;47.00
26099;DHT22;13860;52.370;6.764;2022-07-17T11:44:09;28.50;46.20
26099;DHT22;13860;52.370;6.764;2022-07-17T11:47:23;28.50;46.00
26099;DHT22;13860;52.370;6.764;2022-07-17T11:50:31;28.50;45.60
26099;DHT22;13860;52.370;6.764;2022-07-17T11:53:39;28.50;45.80
26099;DHT22;13860;52.370;6.764;2022-07-17T11:56:57;28.50;45.60
26099;DHT22;13860;52.370;6.764;2022-07-17T12:00:12;28.50;45.10
26099;DHT22;13860;52.370;6.764;2022-07-17T12:03:25;28.50;45.00
26099;DHT22;13860;52.370;6.764;2022-07-17T12:06:30;28.60;44.90
26099;DHT22;13860;52.370;6.764;2022-07-17T12:09:37;28.60;45.00
26099;DHT22;13860;52.370;6.764;2022-07-17T12:12:54;28.70;44.80
26099;DHT22;13860;52.370;6.764;2022-07-17T12:16:00;28.70;44.00
26099;DHT22;13860;52.370;6.764;2022-07-17T12:19:10;28.70;44.30
26099;DHT22;13860;52.370;6.764;2022-07-17T12:22:20;28.70;43.90
26099;DHT22;13860;52.370;6.764;2022-07-17T12:25:26;28.70;44.00
26099;DHT22;13860;52.370;6.764;2022-07-17T12:28:32;28.80;43.80
26099;DHT22;13860;52.370;6.764;2022-07-17T12:31:37;28.80;43.80
26099;DHT22;13860;52.370;6.764;2022-07-17T12:34:46;28.80;43.60
26099;DHT22;13860;52.370;6.764;2022-07-17T12:37:51;28.90;43.50
26099;DHT22;13860;52.370;6.764;2022-07-17T12:40:57;28.90;43.50
26099;DHT22;13860;52.370;6.764;2022-07-17T12:44:04;28.90;43.50
26099;DHT22;13860;52.370;6.764;2022-07-17T12:47:09;28.90;43.50
26099;DHT22;13860;52.370;6.764;2022-07-17T12:50:17;29.00;43.50
26099;DHT22;13860;52.370;6.764;2022-07-17T12:53:22;29.00;43.30
26099;DHT22;13860;52.370;6.764;2022-07-17T12:56:27;29.10;43.40
26099;DHT22;13860;52.370;6.764;2022-07-17T12:59:32;29.10;43.30
26099;DHT22;13860;52.370;6.764;2022-07-17T13:02:38;29.10;43.20
26099;DHT22;13860;52.370;6.764;2022-07-17T13:06:08;29.20;43.30
26099;DHT22;13860;52.370;6.764;2022-07-17T13:09:14;29.10;43.00
26099;DHT22;13860;52.370;6.764;2022-07-17T13:12:23;29.10;43.10
26099;DHT22;13860;52.370;6.764;2022-07-17T13:15:28;29.20;43.00
26099;DHT22;13860;52.370;6.764;2022-07-17T13:18:35;29.20;43.10
26099;DHT22;13860;52.370;6.764;2022-07-17T13:21:43;29.20;43.20
26099;DHT22;13860;52.370;6.764;2022-07-17T13:24:48;29.30;43.10
26099;DHT22;13860;52.370;6.764;2022-07-17T13:27:53;29.30;43.10
26099;DHT22;13860;52.370;6.764;2022-07-17T13:30:59;29.30;43.20
26099;DHT22;13860;52.370;6.764;2022-07-17T13:34:04;29.30;43.10
26099;DHT22;13860;52.370;6.764;2022-07-17T13:37:12;29.40;43.10
26099;DHT22;13860;52.370;6.764;2022-07-17T13:40:17;29.30;42.90
26099;DHT22;13860;52.370;6.764;2022-07-17T13:43:26;29.30;42.90
26099;DHT22;13860;52.370;6.764;2022-07-17T13:46:31;29.40;42.90
26099;DHT22;13860;52.370;6.764;2022-07-17T13:49:40;29.40;42.80
26099;DHT22;13860;52.370;6.764;2022-07-17T13:52:48;29.30;42.70
26099;DHT22;13860;52.370;6.764;2022-07-17T13:55:58;29.40;42.60
26099;DHT22;13860;52.370;6.764;2022-07-17T13:59:03;29.40;42.60
26099;DHT22;13860;52.370;6.764;2022-07-17T14:02:08;29.40;42.50
26099;DHT22;13860;52.370;6.764;2022-07-17T14:05:13;29.40;42.50
26099;DHT22;13860;52.370;6.764;2022-07-17T14:08:21;29.40;42.40
26099;DHT22;13860;52.370;6.764;2022-07-17T14:11:26;29.40;42.20
26099;DHT22;13860;52.370;6.764;2022-07-17T14:14:31;29.40;42.10
26099;DHT22;13860;52.370;6.764;2022-07-17T14:17:39;29.40;42.10
26099;DHT22;13860;52.370;6.764;2022-07-17T14:20:46;29.40;42.00
26099;DHT22;13860;52.370;6.764;2022-07-17T14:23:55;29.40;42.10
26099;DHT22;13860;52.370;6.764;2022-07-17T14:27:03;29.40;42.00
26099;DHT22;13860;52.370;6.764;2022-07-17T14:30:08;29.40;42.00
26099;DHT22;13860;52.370;6.764;2022-07-17T14:33:14;29.30;41.90
26099;DHT22;13860;52.370;6.764;2022-07-17T14:36:19;29.30;42.00
26099;DHT22;13860;52.370;6.764;2022-07-17T14:39:26;29.40;42.10
26099;DHT22;13860;52.370;6.764;2022-07-17T14:42:31;29.30;42.00
26099;DHT22;13860;52.370;6.764;2022-07-17T14:45:38;29.30;42.10
26099;DHT22;13860;52.370;6.764;2022-07-17T14:48:43;29.30;42.10
26099;DHT22;13860;52.370;6.764;2022-07-17T14:51:48;29.30;42.10
26099;DHT22;13860;52.370;6.764;2022-07-17T14:54:56;29.30;42.10
26099;DHT22;13860;52.370;6.764;2022-07-17T14:58:01;29.30;42.00
26099;DHT22;13860;52.370;6.764;2022-07-17T15:01:08;29.30;42.20
26099;DHT22;13860;52.370;6.764;2022-07-17T15:04:13;29.30;42.00
26099;DHT22;13860;52.370;6.764;2022-07-17T15:07:20;29.30;42.00
26099;DHT22;13860;52.370;6.764;2022-07-17T15:10:29;29.20;41.90
26099;DHT22;13860;52.370;6.764;2022-07-17T15:13:35;29.20;41.70
26099;DHT22;13860;52.370;6.764;2022-07-17T15:16:40;29.10;41.70
26099;DHT22;13860;52.370;6.764;2022-07-17T15:19:45;29.00;41.70
26099;DHT22;13860;52.370;6.764;2022-07-17T15:22:50;29.00;41.90
26099;DHT22;13860;52.370;6.764;2022-07-17T15:25:58;28.90;41.80
26099;DHT22;13860;52.370;6.764;2022-07-17T15:29:03;28.90;41.80
26099;DHT22;13860;52.370;6.764;2022-07-17T15:32:08;28.80;41.90
26099;DHT22;13860;52.370;6.764;2022-07-17T15:35:14;28.80;41.90
26099;DHT22;13860;52.370;6.764;2022-07-17T15:38:21;28.70;41.80
26099;DHT22;13860;52.370;6.764;2022-07-17T15:41:29;28.70;41.70
26099;DHT22;13860;52.370;6.764;2022-07-17T15:44:35;28.60;41.70
26099;DHT22;13860;52.370;6.764;2022-07-17T15:47:40;28.60;41.70
26099;DHT22;13860;52.370;6.764;2022-07-17T15:50:47;28.60;41.80
26099;DHT22;13860;52.370;6.764;2022-07-17T15:53:52;28.50;41.80
26099;DHT22;13860;52.370;6.764;2022-07-17T15:57:00;28.50;41.70
26099;DHT22;13860;52.370;6.764;2022-07-17T16:00:07;28.40;41.60
26099;DHT22;13860;52.370;6.764;2022-07-17T16:03:15;28.40;41.80
26099;DHT22;13860;52.370;6.764;2022-07-17T16:06:20;28.30;41.70
26099;DHT22;13860;52.370;6.764;2022-07-17T16:09:25;28.30;41.60
26099;DHT22;13860;52.370;6.764;2022-07-17T16:12:35;28.30;41.60
26099;DHT22;13860;52.370;6.764;2022-07-17T16:15:40;28.30;41.60
26099;DHT22;13860;52.370;6.764;2022-07-17T16:18:46;28.20;41.60
26099;DHT22;13860;52.370;6.764;2022-07-17T16:21:54;28.20;41.70
26099;DHT22;13860;52.370;6.764;2022-07-17T16:25:01;28.10;41.70
26099;DHT22;13860;52.370;6.764;2022-07-17T16:28:09;28.10;41.70
26099;DHT22;13860;52.370;6.764;2022-07-17T16:31:14;28.00;41.60
26099;DHT22;13860;52.370;6.764;2022-07-17T16:34:19;28.00;41.70
26099;DHT22;13860;52.370;6.764;2022-07-17T16:37:24;27.90;41.80
26099;DHT22;13860;52.370;6.764;2022-07-17T16:40:30;27.80;41.90
26099;DHT22;13860;52.370;6.764;2022-07-17T16:43:38;27.80;41.90
26099;DHT22;13860;52.370;6.764;2022-07-17T16:46:43;27.70;41.80
26099;DHT22;13860;52.370;6.764;2022-07-17T16:49:48;27.70;41.80
26099;DHT22;13860;52.370;6.764;2022-07-17T16:52:54;27.70;41.90
26099;DHT22;13860;52.370;6.764;2022-07-17T16:56:00;27.70;41.90
26099;DHT22;13860;52.370;6.764;2022-07-17T16:59:09;27.60;41.90
26099;DHT22;13860;52.370;6.764;2022-07-17T17:02:14;27.60;41.90
26099;DHT22;13860;52.370;6.764;2022-07-17T17:05:20;27.60;42.20
26099;DHT22;13860;52.370;6.764;2022-07-17T17:08:25;27.50;42.30
26099;DHT22;13860;52.370;6.764;2022-07-17T17:11:30;27.50;42.50
26099;DHT22;13860;52.370;6.764;2022-07-17T17:14:37;27.50;42.50
26099;DHT22;13860;52.370;6.764;2022-07-17T17:17:43;27.40;42.50
26099;DHT22;13860;52.370;6.764;2022-07-17T17:20:48;27.30;42.60
26099;DHT22;13860;52.370;6.764;2022-07-17T17:23:53;27.20;42.60
26099;DHT22;13860;52.370;6.764;2022-07-17T17:26:58;27.10;42.60
26099;DHT22;13860;52.370;6.764;2022-07-17T17:30:07;27.00;42.60
26099;DHT22;13860;52.370;6.764;2022-07-17T17:33:12;26.90;42.70
26099;DHT22;13860;52.370;6.764;2022-07-17T17:36:17;26.80;42.80
26099;DHT22;13860;52.370;6.764;2022-07-17T17:39:23;26.80;42.80
26099;DHT22;13860;52.370;6.764;2022-07-17T17:42:29;26.70;42.90
26099;DHT22;13860;52.370;6.764;2022-07-17T17:45:36;26.60;42.90
26099;DHT22;13860;52.370;6.764;2022-07-17T17:48:42;26.60;43.00
26099;DHT22;13860;52.370;6.764;2022-07-17T17:51:47;26.50;42.90
26099;DHT22;13860;52.370;6.764;2022-07-17T17:54:52;26.40;42.90
26099;DHT22;13860;52.370;6.764;2022-07-17T17:57:57;26.40;43.00
26099;DHT22;13860;52.370;6.764;2022-07-17T18:01:05;26.30;43.10
26099;DHT22;13860;52.370;6.764;2022-07-17T18:04:12;26.20;43.00
26099;DHT22;13860;52.370;6.764;2022-07-17T18:07:17;26.20;43.00
26099;DHT22;13860;52.370;6.764;2022-07-17T18:10:22;26.10;43.00
26099;DHT22;13860;52.370;6.764;2022-07-17T18:13:28;26.10;43.20
26099;DHT22;13860;52.370;6.764;2022-07-17T18:16:36;26.00;43.10
26099;DHT22;13860;52.370;6.764;2022-07-17T18:19:41;25.90;43.10
26099;DHT22;13860;52.370;6.764;2022-07-17T18:22:46;25.80;43.10
26099;DHT22;13860;52.370;6.764;2022-07-17T18:25:52;25.80;43.30
26099;DHT22;13860;52.370;6.764;2022-07-17T18:28:57;25.70;43.30
26099;DHT22;13860;52.370;6.764;2022-07-17T18:32:05;25.70;43.40
26099;DHT22;13860;52.370;6.764;2022-07-17T18:35:12;25.60;43.40
26099;DHT22;13860;52.370;6.764;2022-07-17T18:38:17;25.60;43.50
26099;DHT22;13860;52.370;6.764;2022-07-17T18:41:23;25.50;43.60
26099;DHT22;13860;52.370;6.764;2022-07-17T18:44:28;25.50;43.70
26099;DHT22;13860;52.370;6.764;2022-07-17T18:47:36;25.40;43.70
26099;DHT22;13860;52.370;6.764;2022-07-17T18:50:41;25.40;43.90
26099;DHT22;13860;52.370;6.764;2022-07-17T18:53:47;25.30;43.90
26099;DHT22;13860;52.370;6.764;2022-07-17T18:56:52;25.20;43.90
26099;DHT22;13860;52.370;6.764;2022-07-17T18:59:57;25.20;44.10
26099;DHT22;13860;52.370;6.764;2022-07-17T19:03:05;25.10;44.10
26099;DHT22;13860;52.370;6.764;2022-07-17T19:06:10;25.10;44.30
26099;DHT22;13860;52.370;6.764;2022-07-17T19:09:15;25.10;44.30
26099;DHT22;13860;52.370;6.764;2022-07-17T19:12:21;25.00;44.40
26099;DHT22;13860;52.370;6.764;2022-07-17T19:15:27;24.90;44.50
26099;DHT22;13860;52.370;6.764;2022-07-17T19:18:34;24.90;44.60
26099;DHT22;13860;52.370;6.764;2022-07-17T19:21:40;24.90;44.80
26099;DHT22;13860;52.370;6.764;2022-07-17T19:24:45;24.80;44.90
26099;DHT22;13860;52.370;6.764;2022-07-17T19:27:51;24.80;45.00
26099;DHT22;13860;52.370;6.764;2022-07-17T19:30:56;24.60;44.90
26099;DHT22;13860;52.370;6.764;2022-07-17T19:34:04;24.60;45.10
26099;DHT22;13860;52.370;6.764;2022-07-17T19:37:09;24.50;45.20